Sonic Adventure (DX): Overall Rankings

Records: Times | Rings | Scores | Races | Bosses | Freestyle
Leaders: Times | Rings | Scores | Races | Bosses | Freestyle | Overall
Rank Player Percent Points Order Asc Date
1 Sonicspeedruner 98.4% 259 07-01-15
2 Gamepro011 97.6% 384 07-01-15
3 DarkPolarNight 96.2% 622 07-01-15
4 Jawzun 93.8% 1007 07-01-15
5 Dashjump 91.7% 1357 07-01-15
6 DarkspinesSonic 90.7% 1515 07-01-15
7 Avento128bits 90.3% 1586 07-01-15
8 ike6252 90.1% 1620 07-01-15
9 F-Man 86.0% 2293 07-01-15
10 HyperSonic7701 85.1% 2440 07-01-15
11 Coolfansonic 83.9% 2628 07-01-15
12 yoshifan 83.5% 2703 07-01-15
13 frankoredstrato 83.0% 2769 07-01-15
14 TheRealShadnic 82.1% 2929 07-01-15
15 francisco 82.0% 2937 07-01-15
16 Marth 81.7% 2986 07-01-15
17 InferSaime 80.4% 3202 07-01-15
18 PfoSonic 80.0% 3268 07-01-15
19 Paragod 79.5% 3347 07-01-15
20 THC98 78.3% 3539 07-01-15
21 Stefan 76.3% 3881 07-01-15
22 RPGnutter 74.0% 4253 07-01-15
23 bertin 73.9% 4264 07-01-15
24 sonicam 71.7% 4632 07-01-15
25 Combo 65.7% 5615 07-01-15
26 SkyLights 64.5% 5815 07-01-15
27 drminus 63.7% 5934 07-01-15
28 xXMegaManXx 63.6% 5951 07-01-15
29 Diamond 62.8% 6086 07-01-15
30 OmegaDJ 60.3% 6489 07-01-15
31 GerbilSoft 60.3% 6491 07-01-15
32 Auriman1 60.2% 6505 07-01-15
33 magnum12 59.3% 6656 07-01-15
34 Dawid8404 59.2% 6679 07-01-15
35 Thorn 57.3% 6993 07-01-15
36 P1 Pause 57.0% 7035 07-01-15
37 mike89 55.8% 7229 07-01-15
38 chainchumper 54.1% 7515 07-01-15
39 Groudon199 53.9% 7539 07-01-15
40 Dave Cramer 53.9% 7541 07-01-15
41 Parax 53.3% 7642 07-01-15
42 Shadow Jacky 52.8% 7729 07-01-15
43 Psymar 47.6% 8569 07-01-15
44 Chao_Fan 45.8% 8866 07-01-15
45 Arch 45.6% 8909 07-01-15
46 mauserman 45.4% 8937 07-01-15
47 Quartz 44.7% 9051 07-01-15
48 teamblackarms 43.7% 9216 07-01-15
49 Psyknux 43.6% 9239 07-01-15
50 James_Bertolli 42.9% 9342 07-01-15
51 NintenDan 42.4% 9427 07-01-15
52 Webber3000 41.8% 9518 07-01-15
53 Fr3nZy 41.7% 9539 07-01-15
54 Turbos 41.7% 9541 07-01-15
55 Ring Rush 41.7% 9547 07-01-15
56 Cream147 41.4% 9593 07-01-15
57 videogamemaster777 41.2% 9620 07-01-15
58 Siavash Tazari 41.0% 9664 07-01-15
59 buddychaos0415 40.6% 9724 07-01-15
60 SadisticMystic 39.9% 9831 07-01-15
61 eggFL 39.0% 9983 07-01-15
62 Redd 38.7% 10034 07-01-15
63 SB737 37.4% 10241 07-01-15
64 supersonicfan 36.3% 10431 07-01-15
65 FuzZerd 35.3% 10593 07-01-15
66 elecmouse101 34.5% 10722 07-01-15
67 supersonic465 34.3% 10749 07-01-15
68 Austinf 33.7% 10860 07-01-15
69 metanightmare22 32.9% 10982 07-01-15
70 Aitamen 32.8% 10994 07-01-15
71 dabestgamer 32.6% 11029 07-01-15
72 MiStEr_ShAoLiN 32.6% 11036 07-01-15
73 Cyan Ryan 32.5% 11043 07-01-15
74 itsPersonnal 31.8% 11168 07-01-15
75 Cybrax 31.1% 11287 07-01-15
76 Andrea Ritsu 30.6% 11353 07-01-15
77 danieldude 30.5% 11379 07-01-15
78 SilvertheAlmighty 30.5% 11384 07-01-15
79 VMU Player Banned 28.9% 11645 07-01-15
80 Omega Rafael Santos 28.5% 11701 07-01-15
81 Staf 28.1% 11768 07-01-15
82 The T 27.9% 11805 07-01-15
83 EngiNerd 27.5% 11867 07-01-15
84 lordmetalsonic 26.9% 11971 07-01-15
85 Hipertails12 26.8% 11988 07-01-15
86 GreatStar 26.3% 12067 07-01-15
87 welldooder64 26.3% 12071 07-01-15
88 Sondow 26.1% 12099 07-01-15
89 Mastakirby 25.9% 12132 07-01-15
90 The Great Lord Mick 25.9% 12133 07-01-15
91 LinksDarkArrows 25.7% 12166 07-01-15
92 Nimrod 25.6% 12188 07-01-15
93 Skylace 24.8% 12307 07-01-15
94 Rolken 23.3% 12557 07-01-15
95 Xia 21.8% 12807 07-01-15
96 Kogen Player Banned 21.6% 12832 07-01-15
97 Spinballwizard 21.5% 12846 07-01-15
98 Don 21.3% 12877 07-01-15
99 Miles9999 21.2% 12898 07-01-15
100 Cutiefox 21.2% 12907 07-01-15
101 f0rever_zer0 21.1% 12918 07-01-15
101 Game_Complete 21.1% 12918 07-01-15
103 andres430 20.4% 13039 07-01-15
104 Cruizer 20.3% 13052 07-01-15
105 iSonicKid2K 20.0% 13097 07-01-15
106 SADXTryHard 19.8% 13131 07-01-15
107 GarnetPrincess 19.3% 13208 07-01-15
108 a_moustache 19.2% 13224 07-01-15
109 knuckles_sonic8 18.7% 13305 07-01-15
110 Team_Yoshi 18.2% 13388 07-01-15
111 KinkyCadence 18.0% 13418 07-01-15
112 The Knuckles Chao 17.9% 13438 07-01-15
113 Termon 17.8% 13465 07-01-15
114 FoxBoy 17.7% 13481 07-01-15
115 LittleBigness 17.6% 13495 07-01-15
116 SonicWinDX 17.4% 13520 07-01-15
117 Sonic Singularity 15.5% 13830 07-01-15
118 Pokemonmaster888 15.5% 13836 07-01-15
119 Drakodan 14.4% 14010 07-01-15
120 BigAL49 14.4% 14012 07-01-15
121 SilverSonic 14.3% 14029 07-01-15
122 MPit08 14.1% 14061 07-01-15
123 WeegeeZV 14.1% 14062 07-01-15
124 Mo Player Banned 14.1% 14070 07-01-15
125 Cod4Scopes 13.4% 14175 07-01-15
126 HyperSonic64 13.2% 14207 07-01-15
127 booo95 13.1% 14226 07-01-15
128 Chawkk 13.0% 14236 07-01-15
129 paulie9990 13.0% 14243 07-01-15
130 Hunters13 12.9% 14254 07-01-15
130 SuperSonic101 12.9% 14254 07-01-15
132 Maxinfamily 12.7% 14296 07-01-15
133 Kanimayo_Jp 12.5% 14334 07-01-15
134 PsyBorg 12.4% 14335 07-01-15
135 Flying Fox 12.4% 14340 07-01-15
136 BrokenArthritis 12.3% 14357 07-01-15
137 LilZero 12.2% 14368 07-01-15
138 Jerzia 12.2% 14383 07-01-15
139 AxlThunder 12.1% 14395 07-01-15
140 Therio 11.7% 14454 07-01-15
141 sonicspeed 11.6% 14475 07-01-15
142 douglas 11.5% 14496 07-01-15
143 Matt_TY 11.2% 14543 07-01-15
144 joecoolgames 10.5% 14646 07-01-15
145 Cooljay 10.5% 14654 07-01-15
146 SeaWolf 10.5% 14658 07-01-15
147 TFEC Headshot 9.9% 14750 07-01-15
148 welshmoose05 9.8% 14762 07-01-15
149 crazy1993 9.6% 14803 07-01-15
150 OddCook 9.6% 14808 07-01-15
151 Mcshuggets 9.5% 14813 07-01-15
152 videogamer1014 9.2% 14859 07-01-15
153 imazor017 9.2% 14864 07-01-15
154 nuckrieg 9.1% 14890 07-01-15
155 niscool 9.0% 14896 07-01-15
156 SonicAD 9.0% 14899 07-01-15
157 SirTobbii 8.8% 14928 07-01-15
158 Shadowthegreat 8.7% 14948 07-01-15
159 superjupi 8.7% 14949 07-01-15
160 SaviourDC 8.4% 14992 07-01-15
161 iarebored 8.4% 14993 07-01-15
162 sonamyfan666 8.3% 15010 07-01-15
163 Werey 8.3% 15018 07-01-15
164 SonicKnuckles 8.2% 15030 07-01-15
165 adf 7.9% 15080 07-01-15
166 ArcticDragon 7.8% 15094 07-01-15
167 Megaman EXE565 7.7% 15118 07-01-15
168 Platformer 7.4% 15159 07-01-15
169 Mariobutch 7.4% 15169 07-01-15
170 FocusSight64 7.3% 15176 07-01-15
171 Swift Hobo 7.2% 15198 07-01-15
172 wheatrich 7.2% 15199 07-01-15
173 timpkmn89 7.2% 15200 07-01-15
174 Rickyman48 7.0% 15220 07-01-15
175 KitsuneYamaro 6.7% 15276 07-01-15
176 Triseena 6.6% 15292 07-01-15
177 CyberShadow 6.5% 15311 07-01-15
178 slade23 6.4% 15331 07-01-15
179 Starlight Sable 6.4% 15333 07-01-15
180 dShadow 6.3% 15340 07-01-15
181 IsisDazs 6.2% 15355 07-01-15
182 BlankTH 6.0% 15392 07-01-15
183 Monkeh 5.8% 15424 07-01-15
184 Richied 5.7% 15445 07-01-15
185 DaDude 5.6% 15456 07-01-15
186 SonicU260 5.6% 15462 07-01-15
187 sonicd5 5.5% 15474 07-01-15
188 Zip 5.4% 15490 07-01-15
189 Kirbymon30 5.1% 15539 07-01-15
190 tal39h 5.1% 15542 07-01-15
191 ethmar 4.9% 15576 07-01-15
192 Drflash55 4.8% 15590 07-01-15
192 soniccoloursunleashed 4.8% 15590 07-01-15
194 Yish 4.7% 15606 07-01-15
195 neaolas 4.6% 15616 07-01-15
196 Bass 4.6% 15622 07-01-15
197 Sonicsuperstar1 4.5% 15630 07-01-15
198 UninspiredUsername 4.5% 15632 07-01-15
199 superiorsonic 4.5% 15635 07-01-15
200 zapp 4.5% 15642 07-01-15
201 gamefreak1292 4.4% 15652 07-01-15
202 Chaos_Overlord 4.1% 15705 07-01-15
203 TakaRikka 4.0% 15722 07-01-15
204 Valfore 3.9% 15730 07-01-15
205 ShinigamiMachine 3.8% 15749 07-01-15
206 Regano1000 3.7% 15767 07-01-15
207 MK 3.6% 15786 07-01-15
208 Ace747 3.5% 15798 07-01-15
209 Illidan 3.2% 15846 07-01-15
210 HHNNBBHHN 3.2% 15853 07-01-15
211 Venick409 3.1% 15859 07-01-15
212 Brian_pso 3.1% 15871 07-01-15
213 Sithwarrior26 3.0% 15877 07-01-15
214 TheChaosEmeraIds 2.9% 15896 07-01-15
215 ingx24 2.9% 15897 07-01-15
216 Nickson98 2.8% 15909 07-01-15
217 SkyBon 2.8% 15910 07-01-15
218 FSSRandomvids 2.8% 15920 07-01-15
219 Fozer 2.7% 15924 07-01-15
220 sonic29887 2.7% 15931 07-01-15
221 Colomb_30 2.7% 15938 07-01-15
222 TheUltraBlur 2.6% 15946 07-01-15
223 1stKirbyever 2.5% 15958 07-01-15
224 Th4tN1nj4Turtl3 2.3% 15990 07-01-15
225 Cort_pso 2.3% 15992 07-01-15
226 Doom-9 2.3% 15997 07-01-15
227 ieatatsonic 2.2% 16010 07-01-15
228 Mariosonic15 2.2% 16011 07-01-15
229 SuperSonic71087 2.2% 16018 07-01-15
230 MStitomix 2.1% 16026 07-01-15
231 HermitHelmet 2.1% 16034 07-01-15
232 Artie 2.0% 16044 07-01-15
233 Got4n 2.0% 16045 07-01-15
234 Questionguy555 2.0% 16051 07-01-15
235 Jose_15 2.0% 16054 07-01-15
236 djmat 1.8% 16072 07-01-15
237 SuperSonicfan9595 1.8% 16074 07-01-15
238 sonicandamy 1.7% 16088 07-01-15
239 LancexExWx 1.7% 16097 07-01-15
240 son1cgu1tar 1.7% 16101 07-01-15
240 Heroes_Hater 1.7% 16101 07-01-15
242 Paixii 1.6% 16104 07-01-15
243 BallzeH 1.5% 16122 07-01-15
244 Mankster101 1.5% 16129 07-01-15
244 Jamixesa 1.5% 16129 07-01-15
246 BecauseWarAnvil 1.5% 16132 07-01-15
247 Crydio 1.4% 16137 07-01-15
248 Shanekilz 1.4% 16142 07-01-15
249 SpiritDragon1995 1.4% 16143 07-01-15
250 ReuelBrony 1.4% 16150 07-01-15
251 stanski 1.3% 16156 07-01-15
252 MarewBFN 1.3% 16159 07-01-15
253 Sonique Hedgehog 1.3% 16165 07-01-15
254 Blue Infamy 1.2% 16172 07-01-15
255 p0ker 1.2% 16173 07-01-15
256 ErrortheCucco 1.2% 16182 07-01-15
257 Rikum22 1.2% 16185 07-01-15
257 Arthas 1.2% 16185 07-01-15
259 sonic1001 1.1% 16193 07-01-15
260 WingedInsignia 1.1% 16196 07-01-15
261 syco1098 1.1% 16200 07-01-15
262 AJSIV 1.1% 16201 07-01-15
263 Sonic the Hedgehod16 1.0% 16204 07-01-15
264 sonicfan9 1.0% 16206 07-01-15
265 Calfd 1.0% 16211 07-01-15
266 BlackArmsShadow 0.9% 16221 07-01-15
267 themachoman202 0.9% 16225 07-01-15
268 RealProjectMVP1 PSN 0.9% 16227 07-01-15
269 Ben1502 0.9% 16231 07-01-15
270 Greham Adelphis 0.9% 16232 07-01-15
271 shadowblast63 Player Banned 0.9% 16233 07-01-15
272 MastaToken 0.9% 16234 07-01-15
273 Fivavoa 0.8% 16235 07-01-15
274 Mr. Jones 0.8% 16236 07-01-15
275 ptorflaxendrosis 0.8% 16238 07-01-15
275 arcfx1985 0.8% 16238 07-01-15
275 darkstarblaze 0.8% 16238 07-01-15
278 Gvozdevik 0.8% 16243 07-01-15
278 Knuckles 0.8% 16243 07-01-15
278 FlandreScarlet9999vr 0.8% 16243 07-01-15
281 Zeldocto 0.8% 16248 07-01-15
282 KaM Mark MaK 0.7% 16252 07-01-15
283 BeeAwwb 0.7% 16255 07-01-15
284 ShadouZaHejjihoggu 0.7% 16259 07-01-15
285 Sonic62 0.7% 16264 07-01-15
286 darkersupershadic 0.6% 16268 07-01-15
286 Sogeking 0.6% 16268 07-01-15
288 Shadygamerfreak 0.6% 16271 07-01-15
289 dragondragon18 0.6% 16272 07-01-15
290 SonicK100 0.6% 16273 07-01-15
291 Sarger001 0.6% 16274 07-01-15
291 Grady219 0.6% 16274 07-01-15
293 Jawaah 0.6% 16277 07-01-15
294 Antek 0.6% 16283 07-01-15
295 SilverK 0.5% 16284 07-01-15
296 Klaus 0.5% 16285 07-01-15
297 SpinDashMaster 0.5% 16288 07-01-15
298 BioShadow 0.5% 16290 07-01-15
299 Videogamer123 0.5% 16293 07-01-15
300 oTaiIilLsS 0.4% 16307 07-01-15
301 Egor305 0.4% 16308 07-01-15
302 Mad Andy 0.4% 16309 07-01-15
303 isaihtb11 0.4% 16310 07-01-15
304 OhNoes! 0.4% 16311 07-01-15
305 S-MS32X-S 0.4% 16313 07-01-15
305 zaktu40 0.4% 16313 07-01-15
307 gaara1234 0.4% 16316 07-01-15
308 gamed00d 0.3% 16318 07-01-15
309 Mister_Slick 0.3% 16326 07-01-15
310 Sonic06Fan 0.3% 16328 07-01-15
311 Rush Hero 0.3% 16330 07-01-15
312 SonicMega167 0.2% 16334 07-01-15
312 Iwannabelink 0.2% 16334 07-01-15
314 sonknuck23 0.2% 16339 07-01-15
315 gamer1245 0.2% 16344 07-01-15
315 DanielTheFalcon 0.2% 16344 07-01-15
317 Burningskull123 0.1% 16353 07-01-15
318 Sonicontherun 0.1% 16362 07-01-15
319 Lil_Dude 0.0% 16366 07-01-15
320 antiwwe 0.0% 16368 07-01-15
321 Cbwade15 0.0% 16372 07-01-15
321 Genuine Hedgehog 0.0% 16372 07-01-15
323 Tyrouble 0.0% 16375 07-01-15
324 Over 0.0% 16382 07-01-15
324 Tran Sonic Fan Player Banned 0.0% 16382 07-01-15
324 sdj6707 Player Banned 0.0% 16382 07-01-15
324 neji_hyuuga 0.0% 16382 07-01-15
324 MegabombBlade 0.0% 16382 07-01-15

This page is using the New Data Table System. [FUTURE]

Game ID: 3 | Category ID: 10
Hits: 63,778 | Hits This Month: 13 | DB Calls: 21 | Mem Usage: 5.45 MB | Time: 0.11s | Printable

The Sonic Center v3.9
Copyright 2003-2011 by The Sonic Center Team.